Time;durP1;ratioP1;P1;durP2;ratioP2;P2;SDS_P1;SDS_P2;PMS_P1;PMS_P2;Temp;Humidity;BMP_temperature;BMP_pressure;BME280_temperature;BME280_humidity;BME280_pressure;Samples;Min_cycle;Max_cycle;Signal;HPM_P1;HPM_P2
2021/09/09 00:02:00;;;;;;;69.37;40.70;;;;;;;9.17;100.00;100129.79;1731137;82;21126;-69
2021/09/09 00:04:27;;;;;;;64.17;39.85;;;;;;;9.13;100.00;100126.46;1710716;83;21023;-69
2021/09/09 00:06:57;;;;;;;64.67;36.83;;;;;;;9.09;100.00;100127.45;1731067;83;20874;-69
2021/09/09 00:09:23;;;;;;;54.58;36.55;;;;;;;9.05;100.00;100130.82;1731375;82;20956;-69
2021/09/09 00:11:52;;;;;;;55.98;36.08;;;;;;;9.00;100.00;100126.15;1711298;83;20972;-69
2021/09/09 00:14:21;;;;;;;;;;;;;;;8.98;100.00;100130.38;1713603;82;20985;-69
2021/09/09 00:16:50;;;;;;;56.77;36.35;;;;;;;8.98;100.00;100129.05;1731635;82;20413;-69
2021/09/09 00:19:19;;;;;;;59.35;37.78;;;;;;;8.96;100.00;100133.80;1713266;82;20975;-69
2021/09/09 00:21:46;;;;;;;68.92;41.60;;;;;;;9.00;100.00;100127.48;1712718;82;20921;-69
2021/09/09 00:24:14;;;;;;;69.97;40.20;;;;;;;9.05;100.00;100125.47;1713059;82;20997;-69
2021/09/09 00:26:41;;;;;;;65.37;38.90;;;;;;;8.99;100.00;100128.02;1688843;82;21070;-69
2021/09/09 00:29:08;;;;;;;56.73;37.17;;;;;;;8.93;100.00;100136.14;1712449;82;21580;-68
2021/09/09 00:31:36;;;;;;;60.17;37.33;;;;;;;8.83;100.00;100134.02;1706713;82;21315;-68
2021/09/09 00:34:02;;;;;;;62.88;36.88;;;;;;;8.73;100.00;100133.22;1737234;82;20913;-68
2021/09/09 00:36:31;;;;;;;60.90;37.08;;;;;;;8.71;100.00;100128.61;1707347;82;20900;-69
2021/09/09 00:38:58;;;;;;;60.58;40.52;;;;;;;8.73;100.00;100129.20;1736848;82;21135;-68
2021/09/09 00:41:30;;;;;;;61.80;39.03;;;;;;;8.74;100.00;100125.47;1736830;82;21003;-69
2021/09/09 00:43:57;;;;;;;58.35;37.95;;;;;;;8.72;100.00;100131.60;1737076;81;21325;-68
2021/09/09 00:46:24;;;;;;;64.07;40.78;;;;;;;8.64;100.00;100131.09;1736971;81;20997;-68
2021/09/09 00:48:53;;;;;;;59.95;38.80;;;;;;;8.57;100.00;100135.19;1706746;82;20996;-68
2021/09/09 00:51:21;;;;;;;65.55;39.38;;;;;;;8.54;100.00;100131.10;1737152;82;21430;-69
2021/09/09 00:53:48;;;;;;;64.22;39.80;;;;;;;8.61;100.00;100135.03;1737141;81;21313;-68
2021/09/09 00:56:15;;;;;;;64.30;39.40;;;;;;;8.65;100.00;100132.71;1681504;83;21365;-69
2021/09/09 00:58:42;;;;;;;57.95;37.78;;;;;;;8.64;100.00;100129.22;1704707;83;21032;-69
2021/09/09 01:01:09;;;;;;;60.33;37.83;;;;;;;8.63;100.00;100130.81;1706586;83;20874;-68
2021/09/09 01:03:36;;;;;;;70.47;40.53;;;;;;;8.62;100.00;100130.50;1727067;83;21140;-68
2021/09/09 01:06:03;;;;;;;60.63;40.83;;;;;;;8.62;100.00;100133.17;1726647;83;20967;-69
2021/09/09 01:08:31;;;;;;;63.35;40.38;;;;;;;8.64;100.00;100130.56;1726828;83;20992;-69
2021/09/09 01:10:59;;;;;;;67.78;43.25;;;;;;;8.67;100.00;100130.13;1726631;83;20906;-70
2021/09/09 01:13:26;;;;;;;63.60;40.92;;;;;;;8.70;100.00;100132.88;1726676;83;20826;-70
2021/09/09 01:15:55;;;;;;;61.63;40.45;;;;;;;8.72;100.00;100132.10;1726702;83;21140;-69
2021/09/09 01:18:24;;;;;;;68.95;43.20;;;;;;;8.72;100.00;100130.27;1726561;83;20925;-69
2021/09/09 01:20:52;;;;;;;62.38;41.48;;;;;;;8.70;100.00;100130.20;1726997;82;20941;-69
2021/09/09 01:23:20;;;;;;;61.98;39.27;;;;;;;8.65;100.00;100124.69;1726698;83;20909;-69
2021/09/09 01:25:47;;;;;;;64.70;41.20;;;;;;;8.55;100.00;100129.27;1665272;83;20917;-69
2021/09/09 01:28:13;;;;;;;67.22;42.45;;;;;;;8.50;100.00;100131.28;1726984;83;21516;-69
2021/09/09 01:30:40;;;;;;;69.95;42.17;;;;;;;8.50;100.00;100134.45;1729363;82;20866;-69
2021/09/09 01:33:16;;;;;;;65.40;44.48;;;;;;;8.49;100.00;100132.30;1669440;82;21411;-70
2021/09/09 01:35:44;;;;;;;82.15;43.58;;;;;;;8.51;100.00;100132.90;1741429;82;21666;-70
2021/09/09 01:38:22;;;;;;;66.35;42.20;;;;;;;8.52;100.00;100130.51;1741920;81;21023;-70
2021/09/09 01:40:50;;;;;;;69.67;41.77;;;;;;;8.49;100.00;100134.17;1741590;82;21122;-69
2021/09/09 01:43:16;;;;;;;65.62;41.77;;;;;;;8.46;100.00;100134.63;1741964;82;20829;-69
2021/09/09 01:45:44;;;;;;;79.53;46.58;;;;;;;8.52;100.00;100127.83;1741747;82;20909;-69
2021/09/09 01:48:11;;;;;;;66.72;42.13;;;;;;;8.54;100.00;100133.78;1741760;82;20949;-69
2021/09/09 01:50:38;;;;;;;63.98;40.90;;;;;;;8.49;100.00;100127.48;1741669;82;20900;-69
2021/09/09 01:53:04;;;;;;;68.90;41.30;;;;;;;8.42;100.00;100132.09;1741722;82;21422;-68
2021/09/09 01:55:31;;;;;;;65.22;40.85;;;;;;;8.34;100.00;100125.98;1741757;82;20928;-69
2021/09/09 01:57:58;;;;;;;66.12;38.40;;;;;;;8.29;100.00;100133.05;1742074;82;20830;-69
2021/09/09 02:00:25;;;;;;;70.67;42.43;;;;;;;8.27;100.00;100127.92;1741709;81;20956;-69
2021/09/09 02:02:52;;;;;;;63.85;40.60;;;;;;;8.32;100.00;100128.06;1712846;82;21572;-69
2021/09/09 02:05:19;;;;;;;58.17;38.65;;;;;;;8.31;100.00;100133.13;1741651;82;21140;-69
2021/09/09 02:07:46;;;;;;;58.52;38.02;;;;;;;8.24;100.00;100132.39;1741752;81;21375;-69
2021/09/09 02:10:19;;;;;;;76.42;42.30;;;;;;;8.21;100.00;100130.16;1710866;83;20937;-69
2021/09/09 02:12:43;;;;;;;62.58;39.38;;;;;;;8.24;100.00;100130.23;1731076;82;21476;-69
2021/09/09 02:15:14;;;;;;;60.50;39.95;;;;;;;8.23;100.00;100131.27;1731461;82;21508;-68
2021/09/09 02:17:42;;;;;;;59.30;39.20;;;;;;;8.21;100.00;100124.01;1731499;82;21145;-69
2021/09/09 02:20:13;;;;;;;;;;;;;;;8.16;100.00;100122.00;1734028;82;21329;-68
2021/09/09 02:22:40;;;;;;;60.70;38.70;;;;;;;8.13;100.00;100115.74;1731560;82;20108;-69
2021/09/09 02:25:08;;;;;;;63.55;40.28;;;;;;;8.06;100.00;100121.19;1731499;82;20842;-68
2021/09/09 02:27:34;;;;;;;63.40;38.37;;;;;;;7.99;100.00;100118.30;1731645;82;21460;-68
2021/09/09 02:30:01;;;;;;;51.40;35.15;;;;;;;8.01;100.00;100119.70;1730792;82;21113;-68
2021/09/09 02:32:28;;;;;;;54.03;38.02;;;;;;;8.02;100.00;100117.31;1726728;83;20905;-69
2021/09/09 02:34:54;;;;;;;53.87;36.48;;;;;;;8.00;100.00;100115.37;1726691;82;20914;-68
2021/09/09 02:37:23;;;;;;;59.88;39.35;;;;;;;7.98;100.00;100117.45;1726946;83;20929;-69
2021/09/09 02:39:50;;;;;;;64.85;38.80;;;;;;;7.93;100.00;100114.64;1726669;83;20941;-68
2021/09/09 02:42:17;;;;;;;58.17;36.73;;;;;;;7.91;100.00;100112.20;1726628;82;21132;-68
2021/09/09 02:44:45;;;;;;;58.10;37.45;;;;;;;7.88;100.00;100119.83;1723416;83;21486;-68
2021/09/09 02:47:11;;;;;;;62.10;39.58;;;;;;;7.80;100.00;100119.61;1728117;81;20972;-70
2021/09/09 02:49:40;;;;;;;52.73;35.23;;;;;;;7.77;100.00;100118.72;1697605;83;20913;-70
2021/09/09 02:52:07;;;;;;;59.80;38.33;;;;;;;7.77;100.00;100118.72;1658190;85;20986;-71
2021/09/09 02:54:35;;;;;;;61.13;37.67;;;;;;;7.76;100.00;100117.07;1674237;83;21132;-70
2021/09/09 02:57:03;;;;;;;57.43;38.55;;;;;;;7.80;100.00;100123.62;1629925;86;20912;-70
2021/09/09 02:59:29;;;;;;;61.68;38.05;;;;;;;7.87;100.00;100127.05;1658386;85;20883;-69
2021/09/09 03:01:57;;;;;;;66.93;36.63;;;;;;;7.87;100.00;100126.23;1672243;85;20946;-70
2021/09/09 03:04:24;;;;;;;67.85;40.33;;;;;;;7.83;100.00;100121.83;1648086;85;21858;-69
2021/09/09 03:06:51;;;;;;;60.45;37.20;;;;;;;7.81;100.00;100123.91;1637038;85;22243;-69
2021/09/09 03:09:18;;;;;;;61.77;40.45;;;;;;;7.82;100.00;100118.06;1656903;83;21002;-69
2021/09/09 03:11:46;;;;;;;;;;;;;;;7.81;100.00;100115.89;1690044;83;21342;-69
2021/09/09 03:14:13;;;;;;;53.60;37.35;;;;;;;7.82;100.00;100119.40;1697760;84;20371;-69
2021/09/09 03:16:41;;;;;;;60.30;37.98;;;;;;;7.80;100.00;100118.27;1687552;84;20844;-70
2021/09/09 03:19:07;;;;;;;56.25;38.15;;;;;;;7.73;100.00;100118.86;1687635;83;21754;-70
2021/09/09 03:21:34;;;;;;;55.98;37.70;;;;;;;7.69;100.00;100127.00;1658054;83;20947;-70
2021/09/09 03:24:04;;;;;;;54.27;37.08;;;;;;;7.65;100.00;100122.64;1687655;85;20998;-70
2021/09/09 03:26:30;;;;;;;57.83;38.35;;;;;;;7.64;100.00;100125.02;1687731;85;20971;-69
2021/09/09 03:28:57;;;;;;;59.67;39.90;;;;;;;7.69;100.00;100123.84;1687422;83;21010;-70
2021/09/09 03:31:25;;;;;;;55.20;37.33;;;;;;;7.76;100.00;100121.08;1646142;84;21379;-70
2021/09/09 03:33:52;;;;;;;58.23;37.75;;;;;;;7.77;100.00;100128.08;1677068;84;21513;-70
2021/09/09 03:36:23;;;;;;;55.67;36.28;;;;;;;7.76;100.00;100122.94;1598242;88;20982;-69
2021/09/09 03:38:51;;;;;;;61.68;36.65;;;;;;;7.75;100.00;100126.14;1604975;88;21695;-69
2021/09/09 03:41:18;;;;;;;59.60;37.48;;;;;;;7.74;100.00;100129.83;1599017;88;21495;-70
2021/09/09 03:43:45;;;;;;;60.50;39.67;;;;;;;7.76;100.00;100125.61;1624956;86;21188;-69
2021/09/09 03:46:11;;;;;;;65.12;42.45;;;;;;;7.80;100.00;100124.95;1596594;88;21871;-69
2021/09/09 03:48:38;;;;;;;71.87;43.83;;;;;;;7.88;100.00;100127.85;1594017;88;21537;-69
2021/09/09 03:51:04;;;;;;;65.62;41.85;;;;;;;7.93;100.00;100126.66;1569999;90;20996;-69
2021/09/09 03:53:33;;;;;;;75.15;42.65;;;;;;;7.95;100.00;100131.27;1566810;90;21012;-69
2021/09/09 03:55:59;;;;;;;79.03;41.50;;;;;;;7.97;100.00;100128.39;1587463;89;21849;-70
2021/09/09 03:58:30;;;;;;;66.95;40.17;;;;;;;7.95;100.00;100136.09;1583282;89;21012;-70
2021/09/09 04:00:57;;;;;;;60.43;39.38;;;;;;;7.98;100.00;100132.68;1635704;85;20877;-70
2021/09/09 04:03:24;;;;;;;59.00;38.13;;;;;;;8.05;100.00;100142.79;1679187;85;20991;-70
2021/09/09 04:05:52;;;;;;;62.88;38.17;;;;;;;8.13;100.00;100144.66;1667919;85;20999;-70
2021/09/09 04:08:21;;;;;;;58.20;38.08;;;;;;;8.24;100.00;100144.42;1684937;84;20888;-72
2021/09/09 04:10:49;;;;;;;57.27;35.23;;;;;;;8.29;100.00;100144.56;1687258;85;20950;-70
2021/09/09 04:13:15;;;;;;;53.02;34.13;;;;;;;8.38;100.00;100137.88;1680570;85;21007;-69
2021/09/09 04:15:43;;;;;;;57.35;37.58;;;;;;;8.49;100.00;100132.30;1686899;83;21425;-69
2021/09/09 04:18:11;;;;;;;53.40;34.38;;;;;;;8.60;100.00;100138.77;1680766;85;20939;-69
2021/09/09 04:20:38;;;;;;;51.58;34.00;;;;;;;8.68;100.00;100133.09;1686973;83;21139;-69
2021/09/09 04:23:07;;;;;;;55.00;36.90;;;;;;;8.78;100.00;100135.22;1658383;85;20911;-69
2021/09/09 04:25:33;;;;;;;55.30;35.05;;;;;;;8.85;100.00;100140.49;1686943;83;21045;-70
2021/09/09 04:28:00;;;;;;;55.30;37.53;;;;;;;8.91;100.00;100140.91;1687053;83;20935;-69
2021/09/09 04:30:27;;;;;;;54.40;37.38;;;;;;;9.05;100.00;100142.34;1686610;83;21078;-69
2021/09/09 04:32:55;;;;;;;59.23;37.10;;;;;;;9.21;100.00;100143.03;1683591;85;21193;-69
2021/09/09 04:35:21;;;;;;;54.25;33.23;;;;;;;9.37;100.00;100146.07;1683786;85;20947;-69
2021/09/09 04:37:49;;;;;;;62.83;37.65;;;;;;;9.50;100.00;100146.37;1683707;85;21292;-69
2021/09/09 04:40:15;;;;;;;54.83;33.55;;;;;;;9.59;100.00;100145.80;1683364;85;20986;-69
2021/09/09 04:42:42;;;;;;;51.98;33.10;;;;;;;9.72;100.00;100140.72;1700110;83;21037;-69
2021/09/09 04:45:11;;;;;;;55.48;35.05;;;;;;;9.88;100.00;100142.70;1691460;83;21415;-69
2021/09/09 04:47:38;;;;;;;53.98;34.92;;;;;;;10.03;100.00;100144.08;1677680;84;20921;-69
2021/09/09 04:50:08;;;;;;;47.53;31.02;;;;;;;10.16;100.00;100143.81;1674122;85;20984;-69
2021/09/09 04:52:35;;;;;;;57.27;32.38;;;;;;;10.30;100.00;100145.75;1673923;85;20960;-69
2021/09/09 04:55:04;;;;;;;54.00;34.90;;;;;;;10.47;100.00;100139.11;1674177;84;21008;-69
2021/09/09 04:57:30;;;;;;;;;;;;;;;10.61;100.00;100135.63;1676468;84;21098;-69
2021/09/09 04:59:57;;;;;;;54.42;35.08;;;;;;;10.73;100.00;100143.92;1674150;85;20114;-69
2021/09/09 05:02:24;;;;;;;58.45;36.33;;;;;;;10.96;100.00;100141.36;1673968;85;20967;-70
2021/09/09 05:08:25;;;;;;;58.17;39.08;;;;;;;11.31;100.00;100141.14;1660496;84;21530;-69
2021/09/09 05:10:52;;;;;;;62.20;38.48;;;;;;;11.58;100.00;100137.26;1675342;85;21152;-69
2021/09/09 05:13:18;;;;;;;58.48;39.42;;;;;;;11.82;100.00;100143.27;1675396;85;21031;-69
2021/09/09 05:15:45;;;;;;;59.05;36.48;;;;;;;12.02;100.00;100141.41;1675369;85;21024;-69
2021/09/09 05:18:12;;;;;;;46.95;32.25;;;;;;;12.19;100.00;100138.13;1675411;85;20999;-69
2021/09/09 05:20:38;;;;;;;47.58;31.95;;;;;;;12.28;100.00;100136.38;1675546;85;21087;-69
2021/09/09 05:23:06;;;;;;;49.13;29.25;;;;;;;12.39;100.00;100144.30;1674495;85;21116;-70
2021/09/09 05:25:33;;;;;;;49.83;29.70;;;;;;;12.59;100.00;100141.55;1674853;84;20980;-68
2021/09/09 05:27:59;;;;;;;44.88;26.42;;;;;;;12.81;100.00;100144.21;1675212;85;21010;-69
2021/09/09 05:30:26;;;;;;;37.05;24.15;;;;;;;13.07;100.00;100135.84;1674830;85;21078;-69
2021/09/09 05:32:54;;;;;;;33.83;22.30;;;;;;;13.17;100.00;100141.32;1674484;85;21070;-70
2021/09/09 05:35:20;;;;;;;34.35;23.38;;;;;;;13.38;100.00;100136.15;1675200;85;21125;-69
2021/09/09 05:37:47;;;;;;;31.62;20.90;;;;;;;13.50;100.00;100140.28;1675182;85;21012;-70
2021/09/09 05:40:14;;;;;;;31.17;21.52;;;;;;;13.58;100.00;100135.48;1670294;85;20989;-71
2021/09/09 05:42:41;;;;;;;34.70;21.17;;;;;;;13.76;100.00;100134.23;1673256;85;21091;-70
2021/09/09 05:45:09;;;;;;;33.23;20.95;;;;;;;13.94;100.00;100137.33;1659421;84;20937;-72
2021/09/09 05:47:35;;;;;;;31.27;20.70;;;;;;;14.12;100.00;100142.80;1706052;84;21662;-71
2021/09/09 05:50:02;;;;;;;30.20;19.62;;;;;;;14.48;100.00;100148.91;1682235;84;21064;-70
2021/09/09 05:52:29;;;;;;;28.65;19.80;;;;;;;14.69;100.00;100145.74;1763835;81;21406;-70
2021/09/09 05:54:57;;;;;;;29.35;20.60;;;;;;;14.87;100.00;100149.83;1755984;81;21399;-70
2021/09/09 05:57:24;;;;;;;35.43;21.25;;;;;;;15.07;100.00;100143.12;1739234;81;21356;-70
2021/09/09 05:59:51;;;;;;;34.63;18.57;;;;;;;15.29;100.00;100146.11;1683763;85;21180;-70
2021/09/09 06:02:19;;;;;;;31.65;20.27;;;;;;;15.52;100.00;100146.89;1683731;84;20991;-70
2021/09/09 06:04:46;;;;;;;25.55;16.62;;;;;;;15.77;100.00;100144.72;1683788;85;21014;-71
2021/09/09 06:07:15;;;;;;;31.62;19.65;;;;;;;15.95;100.00;100144.70;1683566;84;20990;-70
2021/09/09 06:09:41;;;;;;;28.00;17.25;;;;;;;16.33;100.00;100150.52;1683757;85;21307;-70
2021/09/09 06:12:09;;;;;;;25.32;17.02;;;;;;;16.61;100.00;100138.20;1683888;85;21135;-71
2021/09/09 06:14:37;;;;;;;23.90;16.48;;;;;;;16.52;100.00;100144.48;1683644;83;20821;-70
2021/09/09 06:17:06;;;;;;;25.97;16.40;;;;;;;16.67;100.00;100143.05;1683599;85;21409;-71
2021/09/09 06:19:33;;;;;;;26.95;17.07;;;;;;;17.07;100.00;100145.25;1683371;85;20967;-70
2021/09/09 06:21:59;;;;;;;28.07;18.92;;;;;;;17.23;100.00;100145.41;1683693;84;20978;-71
2021/09/09 06:24:27;;;;;;;29.87;17.85;;;;;;;17.70;100.00;100152.04;1684053;85;21733;-70
2021/09/09 06:26:54;;;;;;;30.08;16.82;;;;;;;17.76;100.00;100152.79;1683795;85;20908;-70
2021/09/09 06:29:20;;;;;;;25.02;16.57;;;;;;;17.98;100.00;100155.87;1683416;84;20872;-70
2021/09/09 06:31:47;;;;;;;26.45;14.83;;;;;;;18.18;100.00;100156.19;1689074;83;20956;-71
2021/09/09 06:34:14;;;;;;;33.63;23.20;;;;;;;18.27;100.00;100155.53;1697557;84;21008;-70
2021/09/09 06:36:41;;;;;;;32.90;16.93;;;;;;;18.50;100.00;100157.43;1697327;84;21126;-70
2021/09/09 06:39:08;;;;;;;28.12;13.43;;;;;;;18.85;100.00;100153.98;1697207;84;20898;-70
2021/09/09 06:41:34;;;;;;;27.13;16.75;;;;;;;19.05;100.00;100165.92;1697377;83;20992;-70
2021/09/09 06:44:01;;;;;;;35.85;20.97;;;;;;;19.24;100.00;100167.83;1700442;84;20893;-70
2021/09/09 06:46:29;;;;;;;20.68;13.53;;;;;;;19.58;100.00;100166.73;1703285;83;21024;-70
2021/09/09 06:48:56;;;;;;;23.42;13.75;;;;;;;19.93;93.63;100168.02;1705252;84;21111;-70
2021/09/09 06:51:23;;;;;;;22.90;13.08;;;;;;;19.81;91.40;100160.89;1705038;84;21035;-70
2021/09/09 06:53:50;;;;;;;;;;;;;;;19.74;89.87;100164.00;1707471;83;21392;-70
2021/09/09 06:56:19;;;;;;;24.02;13.43;;;;;;;19.76;91.57;100165.08;1669970;84;20207;-71
2021/09/09 06:58:47;;;;;;;24.63;14.45;;;;;;;19.87;89.63;100165.95;1699712;84;21013;-71
2021/09/09 07:01:14;;;;;;;16.10;11.28;;;;;;;20.16;88.51;100169.49;1699817;83;21500;-71
2021/09/09 07:03:41;;;;;;;21.15;12.80;;;;;;;20.11;85.06;100175.84;1699803;84;20982;-71
2021/09/09 07:06:08;;;;;;;18.60;12.37;;;;;;;20.20;86.28;100175.97;1700229;84;20970;-71
2021/09/09 07:08:35;;;;;;;18.17;11.85;;;;;;;20.27;86.43;100184.55;1676028;84;20917;-71
2021/09/09 07:11:04;;;;;;;19.07;12.05;;;;;;;20.40;84.63;100185.65;1642347;85;21011;-72
2021/09/09 07:13:32;;;;;;;32.05;12.75;;;;;;;20.69;86.03;100184.78;1683133;84;21077;-71
2021/09/09 07:15:59;;;;;;;17.37;11.53;;;;;;;20.79;85.14;100181.59;1675891;85;20878;-70
2021/09/09 07:18:26;;;;;;;22.80;12.13;;;;;;;20.78;79.95;100177.26;1675771;85;20965;-70
2021/09/09 07:20:53;;;;;;;18.82;10.95;;;;;;;21.04;79.12;100181.00;1684086;84;20983;-69
2021/09/09 07:23:20;;;;;;;17.98;11.70;;;;;;;20.87;78.83;100182.22;1674807;84;20991;-70
2021/09/09 07:25:49;;;;;;;19.52;11.88;;;;;;;21.19;80.23;100181.20;1667637;85;21347;-70
2021/09/09 07:28:15;;;;;;;16.80;11.53;;;;;;;21.31;81.50;100187.47;1673378;84;21569;-70
2021/09/09 07:30:42;;;;;;;18.75;11.45;;;;;;;21.49;77.22;100186.52;1715055;83;21001;-69
2021/09/09 07:33:09;;;;;;;20.92;10.13;;;;;;;21.77;76.18;100193.98;1653499;86;20971;-70
2021/09/09 07:35:36;;;;;;;15.72;10.48;;;;;;;21.79;72.07;100189.59;1648049;86;21010;-69
2021/09/09 07:38:03;;;;;;;11.33;9.20;;;;;;;22.02;74.41;100193.89;1660984;86;21500;-70
2021/09/09 07:40:30;;;;;;;19.50;10.10;;;;;;;22.23;70.68;100196.89;1663994;86;21548;-70
2021/09/09 07:42:58;;;;;;;17.90;10.32;;;;;;;22.53;69.99;100197.14;1656261;86;20999;-70
2021/09/09 07:45:25;;;;;;;20.25;10.88;;;;;;;22.76;68.37;100197.84;1676182;84;20995;-70
2021/09/09 07:47:51;;;;;;;15.85;9.30;;;;;;;23.08;67.63;100200.72;1740256;82;21442;-69
2021/09/09 07:50:18;;;;;;;13.32;8.83;;;;;;;22.73;66.57;100199.83;1729720;82;21814;-70
2021/09/09 07:52:45;;;;;;;16.17;9.23;;;;;;;22.53;64.08;100203.17;1736497;82;21383;-69
2021/09/09 07:55:13;;;;;;;14.60;8.58;;;;;;;22.57;65.91;100204.16;1738041;81;20921;-70
2021/09/09 07:57:45;;;;;;;13.68;7.60;;;;;;;22.18;65.91;100198.94;1733934;82;20987;-71
2021/09/09 08:00:14;;;;;;;11.10;8.78;;;;;;;21.89;67.41;100194.78;1732550;82;20967;-70
2021/09/09 08:02:41;;;;;;;12.18;8.18;;;;;;;22.42;65.94;100193.91;1732637;82;21195;-70
2021/09/09 08:05:10;;;;;;;14.00;9.13;;;;;;;22.44;66.84;100200.41;1731802;81;21010;-70
2021/09/09 08:07:48;;;;;;;11.40;7.62;;;;;;;22.75;65.01;100202.26;1641230;85;21480;-70
2021/09/09 08:10:32;;;;;;;11.15;8.03;;;;;;;23.02;62.71;100203.92;1675196;85;20987;-69
2021/09/09 08:12:59;;;;;;;16.82;9.10;;;;;;;22.84;62.88;100198.41;1673794;85;21696;-69
2021/09/09 08:15:26;;;;;;;22.10;8.45;;;;;;;22.75;64.82;100196.22;1676208;85;21017;-71
2021/09/09 08:18:26;;;;;;;11.95;7.90;;;;;;;23.25;61.12;100198.54;1640559;86;21048;-70
2021/09/09 08:20:57;;;;;;;12.28;8.20;;;;;;;23.53;60.29;100195.44;1631684;87;21164;-70
2021/09/09 08:23:23;;;;;;;12.03;7.83;;;;;;;23.75;59.25;100202.11;1629188;88;20948;-70
2021/09/09 08:25:50;;;;;;;12.47;6.80;;;;;;;23.84;58.79;100203.47;1630096;88;21032;-70
2021/09/09 08:28:17;;;;;;;10.20;6.37;;;;;;;23.76;56.18;100205.65;1630050;88;26807;-70
2021/09/09 08:30:47;;;;;;;8.60;6.90;;;;;;;23.88;56.64;100200.86;1630343;88;21532;-69
2021/09/09 08:33:13;;;;;;;14.90;7.45;;;;;;;23.98;55.15;100208.73;1665414;84;21788;-68
2021/09/09 08:35:42;;;;;;;18.87;13.10;;;;;;;23.99;56.09;100201.33;1673579;84;21487;-69
2021/09/09 08:38:09;;;;;;;15.08;7.65;;;;;;;24.09;56.52;100197.65;1697179;83;21441;-69
2021/09/09 08:40:40;;;;;;;12.25;7.08;;;;;;;23.93;55.43;100202.88;1715799;82;21095;-69
2021/09/09 08:43:07;;;;;;;11.50;7.55;;;;;;;23.87;54.54;100208.86;1697162;84;20832;-68
2021/09/09 08:45:35;;;;;;;12.43;7.28;;;;;;;24.22;53.29;100201.88;1697481;84;20950;-69
2021/09/09 08:48:05;;;;;;;18.40;7.53;;;;;;;24.48;51.74;100202.58;1696929;84;21005;-69
2021/09/09 08:50:32;;;;;;;16.15;7.95;;;;;;;23.93;52.72;100207.00;1697232;84;21401;-69
2021/09/09 08:53:00;;;;;;;25.90;8.85;;;;;;;24.14;53.83;100200.20;1697249;84;21198;-69
2021/09/09 08:55:26;;;;;;;13.20;7.28;;;;;;;24.42;54.93;100198.95;1697376;84;20927;-69
2021/09/09 08:57:56;;;;;;;16.15;6.87;;;;;;;24.55;52.63;100200.70;1697163;84;20958;-69
2021/09/09 09:00:23;;;;;;;12.35;6.80;;;;;;;24.66;50.48;100197.78;1620769;87;20920;-69
2021/09/09 09:02:52;;;;;;;11.68;7.08;;;;;;;24.74;50.38;100196.95;1654409;86;20922;-69
2021/09/09 09:05:19;;;;;;;10.23;6.30;;;;;;;25.05;51.21;100193.56;1697248;84;21444;-69
2021/09/09 09:07:45;;;;;;;10.50;6.50;;;;;;;24.95;50.12;100181.04;1700510;84;20931;-68
2021/09/09 09:10:12;;;;;;;14.58;6.37;;;;;;;24.54;49.82;100186.15;1696759;84;20998;-69
2021/09/09 09:12:44;;;;;;;12.73;7.97;;;;;;;24.72;49.60;100186.86;1697211;84;20922;-69
2021/09/09 09:15:27;;;;;;;12.80;6.75;;;;;;;24.62;51.34;100190.55;1697023;84;21025;-69
2021/09/09 09:18:09;;;;;;;12.90;7.97;;;;;;;24.27;50.82;100190.72;1697193;84;21913;-69
2021/09/09 09:20:50;;;;;;;11.85;8.20;;;;;;;24.42;50.76;100192.88;1600919;88;21423;-68
2021/09/09 09:23:23;;;;;;;13.85;7.83;;;;;;;24.80;49.24;100183.81;1692676;83;21548;-70
2021/09/09 09:25:59;;;;;;;11.57;7.28;;;;;;;24.56;48.09;100185.25;1657146;85;20969;-69
2021/09/09 09:28:45;;;;;;;10.82;7.42;;;;;;;24.90;50.19;100181.24;1710543;83;20976;-69
2021/09/09 09:31:17;;;;;;;10.82;7.40;;;;;;;24.87;48.26;100182.72;1687140;83;21051;-69
2021/09/09 09:33:59;;;;;;;13.72;8.40;;;;;;;25.03;47.58;100178.78;1723033;82;20976;-69
2021/09/09 09:36:38;;;;;;;12.82;8.48;;;;;;;24.86;46.48;100182.47;1698090;83;21506;-69
2021/09/09 09:39:15;;;;;;;12.90;7.80;;;;;;;24.72;44.99;100181.38;1722025;82;20929;-70
2021/09/09 09:42:00;;;;;;;13.60;9.03;;;;;;;24.79;47.91;100178.90;1729302;82;20901;-68
2021/09/09 09:44:39;;;;;;;10.25;8.10;;;;;;;24.87;45.97;100166.82;1733312;82;21145;-68
2021/09/09 09:47:14;;;;;;;11.15;8.48;;;;;;;25.13;46.58;100168.75;1731524;82;21568;-69
2021/09/09 09:49:43;;;;;;;11.20;8.13;;;;;;;25.52;45.64;100168.02;1738752;82;20967;-69
2021/09/09 09:52:19;;;;;;;13.30;7.87;;;;;;;25.85;46.01;100163.89;1730949;83;21384;-68
2021/09/09 09:54:51;;;;;;;15.28;8.58;;;;;;;25.69;43.79;100160.73;1731009;83;20985;-68
2021/09/09 09:57:19;;;;;;;9.58;7.65;;;;;;;25.65;45.13;100159.25;1729911;82;21144;-68
2021/09/09 09:59:45;;;;;;;9.13;7.75;;;;;;;24.69;45.70;100145.53;1736784;81;20928;-68
2021/09/09 10:02:12;;;;;;;13.55;7.22;;;;;;;24.63;45.99;100146.89;1732719;82;21390;-68
2021/09/09 10:04:43;;;;;;;12.60;8.23;;;;;;;25.13;46.52;100154.22;1732924;81;21370;-68
2021/09/09 10:07:12;;;;;;;10.93;7.75;;;;;;;25.44;43.59;100145.56;1732656;82;21335;-68
2021/09/09 10:09:40;;;;;;;15.55;8.30;;;;;;;24.98;44.19;100148.78;1732042;81;21166;-68
2021/09/09 10:12:08;;;;;;;15.30;7.35;;;;;;;25.20;46.08;100142.95;1732554;81;28414;-68
2021/09/09 10:14:46;;;;;;;14.75;8.88;;;;;;;25.11;44.99;100142.77;1732664;82;20919;-68
2021/09/09 10:17:12;;;;;;;11.65;8.50;;;;;;;24.85;46.95;100138.31;1732156;81;21006;-68
2021/09/09 10:19:40;;;;;;;12.13;8.23;;;;;;;25.06;44.63;100141.03;1732975;81;20951;-69
2021/09/09 10:22:12;;;;;;;12.68;9.18;;;;;;;25.27;46.01;100133.38;1753613;80;21122;-69
2021/09/09 10:24:44;;;;;;;23.12;10.50;;;;;;;25.49;43.64;100135.72;1760891;81;20845;-69
2021/09/09 10:27:33;;;;;;;10.15;8.08;;;;;;;25.47;45.12;100132.50;1760899;81;20939;-69
2021/09/09 10:30:04;;;;;;;12.58;8.93;;;;;;;25.54;43.35;100125.09;1761056;81;20975;-69
2021/09/09 10:32:38;;;;;;;19.37;8.63;;;;;;;25.03;45.86;100132.89;1757868;81;20976;-69
2021/09/09 10:35:26;;;;;;;14.25;9.03;;;;;;;25.00;45.22;100133.58;1750460;81;21092;-69
2021/09/09 10:38:01;;;;;;;11.78;8.98;;;;;;;25.36;44.32;100131.34;1750231;82;20882;-69
2021/09/09 10:40:38;;;;;;;14.75;9.78;;;;;;;25.54;43.08;100127.83;1726156;82;20912;-69
2021/09/09 10:43:28;;;;;;;11.93;8.30;;;;;;;25.70;43.15;100121.09;1703470;82;21466;-70
2021/09/09 10:46:09;;;;;;;11.03;8.40;;;;;;;25.28;42.60;100112.98;1703542;84;21478;-70
2021/09/09 10:48:37;;;;;;;16.77;9.85;;;;;;;25.45;45.00;100121.87;1703399;82;21790;-70
2021/09/09 10:51:12;;;;;;;21.23;13.43;;;;;;;25.44;45.23;100111.21;1703027;83;20957;-70
2021/09/09 10:53:52;;;;;;;21.07;10.20;;;;;;;25.64;43.53;100116.39;1702397;83;21458;-70
2021/09/09 10:56:36;;;;;;;13.22;8.08;;;;;;;25.96;42.80;100119.43;1703362;83;21000;-69
2021/09/09 10:59:15;;;;;;;11.75;8.45;;;;;;;25.40;43.37;100118.52;1703181;84;21031;-69
2021/09/09 11:01:44;;;;;;;;;;;;;;;25.39;42.59;100119.09;1705955;84;21159;-70
2021/09/09 11:04:26;;;;;;;15.05;8.88;;;;;;;25.78;41.67;100114.13;1703259;84;20090;-70
2021/09/09 11:06:56;;;;;;;11.85;8.00;;;;;;;25.69;42.19;100109.30;1703359;83;21031;-69
2021/09/09 11:09:24;;;;;;;14.28;8.35;;;;;;;25.32;43.25;100099.61;1703479;82;20956;-70
2021/09/09 11:12:03;;;;;;;12.03;8.08;;;;;;;25.21;43.50;100099.83;1703245;83;20980;-69
2021/09/09 11:14:32;;;;;;;10.95;8.50;;;;;;;25.38;43.31;100094.14;1703328;82;21039;-69
2021/09/09 11:17:01;;;;;;;15.58;8.55;;;;;;;25.39;43.84;100099.86;1703168;84;21364;-69
2021/09/09 11:19:28;;;;;;;10.50;7.53;;;;;;;25.39;42.38;100090.82;1703009;82;20913;-70
2021/09/09 11:22:03;;;;;;;13.08;8.75;;;;;;;25.00;42.74;100092.38;1702910;82;20869;-69
2021/09/09 11:24:35;;;;;;;11.80;7.28;;;;;;;25.55;41.98;100087.66;1703200;82;20977;-69